首页
METAR-TAF:

METAR-TAF

机场 :

佩吉, 亞利桑那州, 美国

纬度: 36-55-14N, 经度: 111-26-53W, 海拔: 1314米

当前天气观测

该预报发布于15分钟前的08:53 UTC
静风
温度 28°C
湿度 20%
气压 1015 hPa
能見度: 16.1公里
天空无云

METAR: KPGA 160853Z AUTO 00000KT 10SM CLR 28/03 A2996 RMK AO2 SLP064 T02830033 50002 TSNO

时间: 02:08 (09:08 UTC)

预报

该预报发布于3小时和48分钟前的05:20 UTC
预报有效从16日的 06点(UTC)到 17日的 06点(UTC)
风速6节,风向多变
能見度: 10公里
少量云层高于12000英尺

TAF: KPGA 160520Z 1606/1706 VRB06KT P6SM FEW120

超过4000个机场的气象观测和天气预报(METAR&TAF报告)。

可查询的气象台以黄色和红色小点在地图上表示。

将鼠标移到小点上方,可查看气象台名称。

然后点击查看天气观测和预报。

如需切换地图:点击带黑十字的绿色按钮放大地图;点击带横线的绿色按钮缩小地图;或者点击绿色箭头查看邻近地区的地图。


METAR-TAF: